createdAt,value
2022-10-02T00:00:18.658Z,1119.43
2022-10-02T00:02:52.406Z,1110.27
2022-10-02T00:05:25.117Z,1093.03
2022-10-02T00:08:00.097Z,957.40
2022-10-02T00:10:35.324Z,1002.20
2022-10-02T00:13:08.624Z,908.07
2022-10-02T00:15:40.891Z,883.50
2022-10-02T00:18:14.769Z,940.40
2022-10-02T00:20:50.434Z,984.63
2022-10-02T00:23:26.522Z,983.17
2022-10-02T00:26:02.008Z,994.33
2022-10-02T00:28:41.402Z,1050.17
2022-10-02T00:31:25.239Z,1119.27
2022-10-02T00:34:07.137Z,1193.63
2022-10-02T00:36:42.991Z,1233.30
2022-10-02T00:39:24.878Z,1195.07
2022-10-02T00:42:33.544Z,1202.57
2022-10-02T00:45:41.392Z,1221.40
2022-10-02T00:48:28.515Z,1242.43
2022-10-02T00:51:09.278Z,1286.93
2022-10-02T00:53:50.601Z,1306.73
2022-10-02T00:56:29.248Z,1747.90
2022-10-02T00:59:12.916Z,1827.87
2022-10-02T01:01:50.243Z,1822.37
2022-10-02T01:04:24.474Z,1728.07
2022-10-02T01:06:52.598Z,2266.67
2022-10-02T01:09:20.839Z,2266.67
2022-10-02T01:11:49.514Z,2266.67
2022-10-02T01:14:17.737Z,2266.67
2022-10-02T01:16:47.655Z,2266.67
2022-10-02T01:19:26.517Z,2266.67
2022-10-02T01:22:05.260Z,2266.67
2022-10-02T01:24:38.051Z,2266.67
2022-10-02T01:27:07.647Z,2266.67
2022-10-02T01:29:36.185Z,2266.67
2022-10-02T01:32:04.358Z,2266.67
2022-10-02T01:34:33.816Z,2266.67
2022-10-02T01:37:02.972Z,2266.67
2022-10-02T01:39:31.848Z,2266.67
2022-10-02T01:42:00.274Z,2266.67
2022-10-02T01:44:30.521Z,2266.67
2022-10-02T01:47:05.716Z,2266.67
2022-10-02T01:49:48.092Z,2266.67
2022-10-02T01:52:30.855Z,2266.67
2022-10-02T01:55:10.189Z,2266.67
2022-10-02T01:57:50.195Z,2266.67
2022-10-02T02:00:22.258Z,1746.33
2022-10-02T02:02:58.541Z,906.40
2022-10-02T02:05:42.126Z,1102.77
2022-10-02T02:08:16.784Z,815.40
2022-10-02T02:10:53.821Z,1851.77
2022-10-02T02:13:27.283Z,1728.97
2022-10-02T02:16:03.519Z,1697.37
2022-10-02T02:18:40.542Z,2266.67
2022-10-02T02:21:13.723Z,2266.67
2022-10-02T02:23:44.342Z,2266.67
2022-10-02T02:26:15.103Z,2266.67
2022-10-02T02:28:49.838Z,2266.67
2022-10-02T02:31:22.490Z,2266.67
2022-10-02T02:33:57.156Z,2266.67
2022-10-02T02:36:31.605Z,2266.67
2022-10-02T02:39:04.221Z,2266.67
2022-10-02T02:41:40.184Z,2266.67
2022-10-02T02:44:13.216Z,2266.67
2022-10-02T02:47:06.574Z,2266.67
2022-10-02T02:49:41.858Z,2266.67
2022-10-02T02:52:15.253Z,2266.67
2022-10-02T02:54:47.622Z,2266.67
2022-10-02T02:57:18.301Z,2266.67
2022-10-02T02:59:50.349Z,2266.67
2022-10-02T03:02:19.915Z,2266.67
2022-10-02T03:04:48.132Z,2266.67
2022-10-02T03:07:18.059Z,2266.67
2022-10-02T03:09:55.099Z,2266.67
2022-10-02T03:12:34.517Z,2266.67
2022-10-02T03:15:16.655Z,2266.67
2022-10-02T03:18:03.621Z,2266.67
2022-10-02T03:20:42.487Z,2266.67
2022-10-02T03:23:20.896Z,2266.67
2022-10-02T03:25:55.068Z,2266.67
2022-10-02T03:28:53.624Z,2266.67
2022-10-02T03:31:19.315Z,2266.67
2022-10-02T03:33:49.682Z,2266.67
2022-10-02T03:36:20.681Z,2266.67
2022-10-02T03:39:06.243Z,2266.67
2022-10-02T03:41:38.301Z,2266.67
2022-10-02T03:44:06.454Z,2266.67
2022-10-02T03:46:35.080Z,2266.67
2022-10-02T03:49:04.771Z,2266.67
2022-10-02T03:51:32.919Z,2266.67
2022-10-02T03:54:01.112Z,2266.67
2022-10-02T03:56:39.822Z,2266.67
2022-10-02T03:59:16.918Z,2266.67
2022-10-02T04:01:50.227Z,2266.67
2022-10-02T04:04:26.377Z,2266.67
2022-10-02T04:07:00.871Z,2266.67
2022-10-02T04:09:32.590Z,2266.67
2022-10-02T04:12:05.076Z,2266.67
2022-10-02T04:14:40.715Z,2266.67
2022-10-02T04:17:13.903Z,2266.67
2022-10-02T04:19:48.273Z,2266.67
2022-10-02T04:22:22.970Z,2266.67
2022-10-02T04:24:57.272Z,2266.67
2022-10-02T04:27:34.456Z,2266.67
2022-10-02T04:30:05.496Z,2266.67
2022-10-02T04:32:35.191Z,2266.67
2022-10-02T04:35:13.384Z,1707.70
2022-10-02T04:37:59.007Z,1754.43
2022-10-02T04:40:40.212Z,1711.03
2022-10-02T04:43:19.553Z,1696.53
2022-10-02T04:45:59.952Z,930.30
2022-10-02T04:49:19.875Z,1595.73
2022-10-02T04:52:08.879Z,1375.53
2022-10-02T04:54:56.978Z,1504.17
2022-10-02T04:57:40.797Z,1367.37
2022-10-02T05:00:12.456Z,1121.77
2022-10-02T05:02:53.895Z,611.70
2022-10-02T05:05:30.137Z,710.33
2022-10-02T05:08:20.459Z,467.13
2022-10-02T05:11:07.335Z,421.80
2022-10-02T05:13:53.639Z,440.20
2022-10-02T05:16:34.986Z,297.47
2022-10-02T05:19:26.979Z,302.97
2022-10-02T05:22:14.863Z,311.60
2022-10-02T05:24:55.587Z,306.93
2022-10-02T05:27:37.308Z,328.87
2022-10-02T05:30:11.938Z,285.70
2022-10-02T05:33:17.269Z,358.03
2022-10-02T05:36:21.607Z,315.20
2022-10-02T05:39:07.114Z,310.47
2022-10-02T05:41:45.997Z,362.20
2022-10-02T05:44:18.712Z,364.47
2022-10-02T05:46:52.161Z,372.10
2022-10-02T05:49:26.317Z,401.17
2022-10-02T05:52:00.285Z,393.07
2022-10-02T05:54:42.466Z,380.20
2022-10-02T05:57:20.560Z,343.63
2022-10-02T06:00:01.465Z,372.57
2022-10-02T06:02:39.486Z,406.73
2022-10-02T06:05:16.658Z,452.83
2022-10-02T06:07:48.571Z,470.73
2022-10-02T06:10:20.146Z,499.50
2022-10-02T06:12:55.939Z,579.80
2022-10-02T06:15:27.795Z,577.00
2022-10-02T06:18:00.431Z,626.17
2022-10-02T06:20:35.037Z,638.30
2022-10-02T06:23:08.695Z,688.57
2022-10-02T06:25:40.759Z,687.50
2022-10-02T06:28:16.714Z,534.27
2022-10-02T06:30:50.483Z,498.23
2022-10-02T06:33:23.688Z,475.87
2022-10-02T06:36:18.936Z,391.90
2022-10-02T06:39:11.950Z,316.40
2022-10-02T06:41:54.305Z,295.73
2022-10-02T06:44:35.537Z,339.50
2022-10-02T06:47:19.741Z,302.30
2022-10-02T06:50:03.924Z,362.10
2022-10-02T06:52:45.018Z,407.20
2022-10-02T06:55:33.062Z,410.57
2022-10-02T06:58:13.886Z,426.47
2022-10-02T07:00:50.856Z,443.43
2022-10-02T07:03:51.394Z,563.77
2022-10-02T07:06:36.997Z,462.37
2022-10-02T07:09:45.736Z,503.90
2022-10-02T07:12:31.358Z,433.90
2022-10-02T07:15:19.895Z,509.17
2022-10-02T07:18:04.964Z,554.63
2022-10-02T07:20:47.393Z,633.50
2022-10-02T07:23:30.689Z,613.40
2022-10-02T07:26:15.449Z,633.00
2022-10-02T07:28:51.714Z,637.73
2022-10-02T07:31:33.100Z,818.93
2022-10-02T07:34:18.676Z,746.67
2022-10-02T07:36:57.202Z,705.83
2022-10-02T07:39:38.128Z,767.13
2022-10-02T07:42:23.935Z,711.57
2022-10-02T07:45:22.577Z,738.63
2022-10-02T07:48:07.160Z,656.27
2022-10-02T07:50:50.295Z,749.90
2022-10-02T07:53:26.365Z,777.03
2022-10-02T07:55:56.282Z,838.20
2022-10-02T07:58:33.057Z,999.53
2022-10-02T08:01:03.330Z,1070.93
2022-10-02T08:03:37.148Z,1494.80
2022-10-02T08:06:07.389Z,1374.10
2022-10-02T08:08:40.280Z,1344.83
2022-10-02T08:11:13.347Z,1595.30
2022-10-02T08:13:47.619Z,1715.97
2022-10-02T08:16:22.598Z,1473.47
2022-10-02T08:18:56.726Z,1595.73
2022-10-02T08:21:27.800Z,1427.27
2022-10-02T08:24:00.510Z,1693.20
2022-10-02T08:26:35.784Z,1893.43
2022-10-02T08:29:09.146Z,1802.10
2022-10-02T08:31:37.309Z,1945.27
2022-10-02T08:34:14.822Z,2064.47
2022-10-02T08:37:03.021Z,1960.33
2022-10-02T08:39:53.814Z,1765.10
2022-10-02T08:42:55.986Z,1563.50
2022-10-02T08:46:02.506Z,1294.50
2022-10-02T08:49:07.156Z,1268.53
2022-10-02T08:51:52.755Z,1328.03
2022-10-02T08:54:50.491Z,1777.20
2022-10-02T08:57:48.058Z,1578.07
2022-10-02T09:00:23.726Z,1508.07
2022-10-02T09:03:28.453Z,1988.67
2022-10-02T09:06:37.434Z,1892.57
2022-10-02T09:09:53.686Z,1993.47
2022-10-02T09:12:53.808Z,1871.77
2022-10-02T09:15:34.849Z,2103.90
2022-10-02T09:18:16.753Z,2212.90
2022-10-02T09:21:12.724Z,2251.60
2022-10-02T09:24:23.380Z,2193.83
2022-10-02T09:27:12.513Z,2145.07
2022-10-02T09:30:13.142Z,2266.67
2022-10-02T09:33:22.629Z,2211.70
2022-10-02T09:36:25.002Z,2190.87
2022-10-02T09:39:21.725Z,2200.00
2022-10-02T09:42:31.549Z,2207.00
2022-10-02T09:45:43.109Z,2200.00
2022-10-02T09:48:48.748Z,2157.97
2022-10-02T09:51:58.787Z,2200.00
2022-10-02T09:54:55.760Z,2228.17
2022-10-02T09:58:10.735Z,2266.67
2022-10-02T10:01:09.652Z,2262.37
2022-10-02T10:04:02.092Z,2266.67
2022-10-02T10:07:07.165Z,2266.67
2022-10-02T10:10:00.764Z,2266.67
2022-10-02T10:13:21.392Z,2266.67
2022-10-02T10:16:19.902Z,2266.67
2022-10-02T10:19:45.396Z,2266.67
2022-10-02T10:22:57.595Z,2266.67
2022-10-02T10:25:50.196Z,2266.67
2022-10-02T10:28:52.850Z,2266.67
2022-10-02T10:32:03.720Z,2266.67
2022-10-02T10:34:46.185Z,2266.67
2022-10-02T10:37:47.911Z,2266.67
2022-10-02T10:40:37.106Z,2266.67
2022-10-02T10:43:36.495Z,2266.67
2022-10-02T10:46:24.267Z,2266.67
2022-10-02T10:49:28.082Z,2266.67
2022-10-02T10:52:14.080Z,2266.67
2022-10-02T10:55:03.693Z,2266.67
2022-10-02T10:57:51.347Z,2266.67
2022-10-02T11:00:22.848Z,2266.67
2022-10-02T11:03:23.944Z,2266.67
2022-10-02T11:06:36.947Z,2266.67
2022-10-02T11:09:53.949Z,2266.67
2022-10-02T11:12:47.080Z,656.70
2022-10-02T11:15:48.054Z,265.17
2022-10-02T11:18:34.536Z,1735.10
2022-10-02T11:21:28.762Z,1883.00
2022-10-02T11:24:14.719Z,2266.67
2022-10-02T11:27:13.568Z,2266.67
2022-10-02T11:30:07.818Z,2266.67
2022-10-02T11:33:10.732Z,2266.67
2022-10-02T11:35:52.080Z,2266.67
2022-10-02T11:38:50.048Z,2266.67
2022-10-02T11:41:53.464Z,2266.67
2022-10-02T11:44:37.298Z,2266.67
2022-10-02T11:47:33.471Z,2266.67
2022-10-02T11:50:40.092Z,2266.67
2022-10-02T11:53:22.190Z,2266.67
2022-10-02T11:56:16.208Z,2266.67
2022-10-02T11:58:56.560Z,2266.67
2022-10-02T12:01:35.876Z,2266.67
2022-10-02T12:04:33.335Z,1730.90
2022-10-02T12:07:18.842Z,938.20
2022-10-02T12:09:58.838Z,1691.57
2022-10-02T12:12:41.157Z,1010.80
2022-10-02T12:15:23.924Z,2042.37
2022-10-02T12:18:03.610Z,2014.77
2022-10-02T12:21:10.177Z,1934.57
2022-10-02T12:24:07.265Z,2266.67
2022-10-02T12:27:04.558Z,2266.67
2022-10-02T12:29:45.111Z,2266.67
2022-10-02T12:32:28.054Z,1596.73
2022-10-02T12:35:17.847Z,2266.67
2022-10-02T12:37:57.728Z,1731.97
2022-10-02T12:40:32.859Z,1697.67
2022-10-02T12:43:21.082Z,2266.67
2022-10-02T12:46:22.019Z,2203.60
2022-10-02T12:49:03.272Z,2266.67
2022-10-02T12:51:38.325Z,2266.67
2022-10-02T12:54:43.902Z,2266.67
2022-10-02T12:57:53.448Z,2266.67
2022-10-02T13:00:24.625Z,2266.67
2022-10-02T13:03:29.409Z,2266.67
2022-10-02T13:06:27.902Z,2266.67
2022-10-02T13:09:11.806Z,2266.67
2022-10-02T13:11:56.390Z,2266.67
2022-10-02T13:15:03.353Z,2266.67
2022-10-02T13:17:39.401Z,2266.67
2022-10-02T13:20:20.599Z,2266.67
2022-10-02T13:22:58.202Z,2266.67
2022-10-02T13:25:38.945Z,2266.67
2022-10-02T13:28:26.236Z,2266.67
2022-10-02T13:31:04.754Z,2266.67
2022-10-02T13:33:54.068Z,2266.67
2022-10-02T13:36:33.720Z,2266.67
2022-10-02T13:39:33.937Z,2266.67
2022-10-02T13:42:18.456Z,2266.67
2022-10-02T13:44:57.310Z,2266.67
2022-10-02T13:47:44.202Z,2266.67
2022-10-02T13:50:23.470Z,2266.67
2022-10-02T13:53:04.152Z,2266.67
2022-10-02T13:55:36.690Z,2266.67
2022-10-02T13:58:30.150Z,2266.67
2022-10-02T14:01:06.860Z,2266.67
2022-10-02T14:06:53.847Z,2266.67
2022-10-02T14:09:40.609Z,2266.67
2022-10-02T14:12:28.715Z,2266.67
2022-10-02T14:15:16.351Z,2266.67
2022-10-02T14:18:07.129Z,2266.67
2022-10-02T14:20:41.007Z,2266.67
2022-10-02T14:23:30.711Z,2266.67
2022-10-02T14:26:13.165Z,2266.67
2022-10-02T14:29:08.569Z,2266.67
2022-10-02T14:32:18.522Z,2266.67
2022-10-02T14:35:12.219Z,2266.67
2022-10-02T14:38:32.469Z,2266.67
2022-10-02T14:41:14.782Z,2266.67
2022-10-02T14:44:00.737Z,2266.67
2022-10-02T14:46:38.110Z,2266.67
2022-10-02T14:49:22.541Z,2266.67
2022-10-02T14:52:08.818Z,2266.67
2022-10-02T14:54:54.325Z,2266.67
2022-10-02T14:57:45.900Z,2266.67
2022-10-02T15:00:19.402Z,2266.67
2022-10-02T15:03:16.537Z,2266.67
2022-10-02T15:06:26.174Z,1098.30
2022-10-02T15:09:01.142Z,409.63
2022-10-02T15:11:52.089Z,1264.77
2022-10-02T15:14:25.268Z,943.63
2022-10-02T15:17:18.284Z,1133.53
2022-10-02T15:19:50.266Z,904.80
2022-10-02T15:22:22.806Z,1464.60
2022-10-02T15:24:58.260Z,2019.03
2022-10-02T15:27:32.638Z,2193.47
2022-10-02T15:30:13.104Z,1787.17
2022-10-02T15:32:56.191Z,2002.00
2022-10-02T15:35:49.632Z,2266.67
2022-10-02T15:38:37.561Z,2266.67
2022-10-02T15:41:32.046Z,2211.97
2022-10-02T15:44:11.081Z,2200.00
2022-10-02T15:46:55.107Z,2214.00
2022-10-02T15:49:36.854Z,2097.03
2022-10-02T15:52:15.009Z,2179.07
2022-10-02T15:54:55.176Z,2139.80
2022-10-02T15:57:53.852Z,2003.33
2022-10-02T16:00:23.909Z,2183.77
2022-10-02T16:03:02.714Z,1985.80
2022-10-02T16:05:44.254Z,1578.57
2022-10-02T16:08:55.601Z,1339.67
2022-10-02T16:12:09.255Z,1394.07
2022-10-02T16:14:48.645Z,1383.63
2022-10-02T16:17:32.778Z,1528.50
2022-10-02T16:20:13.924Z,1909.17
2022-10-02T16:22:59.341Z,1566.97
2022-10-02T16:25:48.700Z,1688.77
2022-10-02T16:28:34.132Z,1475.87
2022-10-02T16:31:20.069Z,1440.97
2022-10-02T16:34:00.935Z,1986.83
2022-10-02T16:36:41.355Z,1784.13
2022-10-02T16:39:20.516Z,1876.67
2022-10-02T16:42:01.673Z,2107.03
2022-10-02T16:45:17.092Z,1597.20
2022-10-02T16:47:56.045Z,1781.10
2022-10-02T16:50:28.739Z,1954.33
2022-10-02T16:53:03.698Z,2123.33
2022-10-02T16:55:36.487Z,2199.43
2022-10-02T16:58:24.333Z,2220.63
2022-10-02T17:00:56.875Z,2217.43
2022-10-02T17:03:33.610Z,2218.73
2022-10-02T17:06:10.987Z,2200.00
2022-10-02T17:08:45.227Z,2193.17
2022-10-02T17:11:21.563Z,2200.00
2022-10-02T17:14:06.286Z,2200.00
2022-10-02T17:16:40.627Z,2168.63
2022-10-02T17:19:23.100Z,2183.57
2022-10-02T17:21:56.479Z,2123.67
2022-10-02T17:24:43.615Z,2095.67
2022-10-02T17:27:19.086Z,2046.13
2022-10-02T17:29:55.567Z,2132.03
2022-10-02T17:32:48.266Z,2089.13
2022-10-02T17:35:30.190Z,1697.93
2022-10-02T17:38:36.072Z,1880.47
2022-10-02T17:41:21.494Z,1416.20
2022-10-02T17:43:59.420Z,1865.30
2022-10-02T17:46:56.647Z,2021.77
2022-10-02T17:49:37.630Z,1577.17
2022-10-02T17:52:40.700Z,1835.20
2022-10-02T17:55:44.358Z,1385.77
2022-10-02T17:58:23.314Z,1454.30
2022-10-02T18:01:05.843Z,1577.93
2022-10-02T18:03:53.037Z,1920.57
2022-10-02T18:06:31.975Z,1870.87
2022-10-02T18:09:27.016Z,1963.47
2022-10-02T18:12:23.151Z,1532.00
2022-10-02T18:15:16.470Z,1541.23
2022-10-02T18:18:08.373Z,1343.50
2022-10-02T18:20:44.444Z,1461.27
2022-10-02T18:23:25.539Z,1786.70
2022-10-02T18:26:20.312Z,1690.03
2022-10-02T18:29:06.960Z,1622.80
2022-10-02T18:31:58.567Z,1725.90
2022-10-02T18:34:53.469Z,1799.00
2022-10-02T18:37:39.301Z,1422.33
2022-10-02T18:40:23.307Z,1456.77
2022-10-02T18:43:21.993Z,1543.30
2022-10-02T18:46:00.265Z,1320.77
2022-10-02T18:48:57.526Z,1654.70
2022-10-02T18:51:37.882Z,1441.10
2022-10-02T18:54:21.188Z,1688.63
2022-10-02T18:57:05.422Z,1774.70
2022-10-02T18:59:47.784Z,1728.60
2022-10-02T19:02:33.722Z,1838.93
2022-10-02T19:05:23.994Z,1692.47
2022-10-02T19:07:57.952Z,1721.33
2022-10-02T19:10:29.539Z,1946.47
2022-10-02T19:13:02.115Z,1864.73
2022-10-02T19:15:34.742Z,1976.87
2022-10-02T19:18:04.700Z,1858.70
2022-10-02T19:20:48.207Z,2059.57
2022-10-02T19:23:26.425Z,1795.77
2022-10-02T19:25:57.103Z,1888.43
2022-10-02T19:28:29.485Z,1938.90
2022-10-02T19:31:03.786Z,2107.37
2022-10-02T19:33:45.014Z,1921.23
2022-10-02T19:36:19.533Z,1711.07
2022-10-02T19:38:54.412Z,1872.07
2022-10-02T19:41:23.722Z,1973.67
2022-10-02T19:43:57.000Z,2099.47
2022-10-02T19:46:37.150Z,1822.73
2022-10-02T19:49:07.523Z,1773.30
2022-10-02T19:51:46.207Z,1928.50
2022-10-02T19:54:20.261Z,1641.07
2022-10-02T19:56:48.589Z,1799.23
2022-10-02T19:59:20.051Z,1889.33
2022-10-02T20:01:53.896Z,1685.23
2022-10-02T20:04:24.273Z,1601.53
2022-10-02T20:06:57.013Z,1606.33
2022-10-02T20:09:31.040Z,1363.30
2022-10-02T20:12:05.832Z,1274.23
2022-10-02T20:14:40.841Z,1166.17
2022-10-02T20:17:12.675Z,1194.80
2022-10-02T20:19:45.630Z,1181.60
2022-10-02T20:22:24.868Z,1039.00
2022-10-02T20:24:57.787Z,754.27
2022-10-02T20:27:37.380Z,954.27
2022-10-02T20:30:12.232Z,833.60
2022-10-02T20:32:48.147Z,874.90
2022-10-02T20:35:22.830Z,764.47
2022-10-02T20:37:55.182Z,716.03
2022-10-02T20:40:28.515Z,706.87
2022-10-02T20:43:01.859Z,723.60
2022-10-02T20:45:38.136Z,758.27
2022-10-02T20:49:06.300Z,717.77
2022-10-02T20:51:54.838Z,346.10
2022-10-02T20:54:49.256Z,384.57
2022-10-02T20:57:59.797Z,381.57
2022-10-02T21:00:32.474Z,393.23
2022-10-02T21:03:30.853Z,600.87
2022-10-02T21:06:32.596Z,385.33
2022-10-02T21:09:36.155Z,346.93
2022-10-02T21:12:46.079Z,298.63
2022-10-02T21:15:34.830Z,318.27
2022-10-02T21:18:24.404Z,370.83
2022-10-02T21:21:19.369Z,320.97
2022-10-02T21:24:16.036Z,325.13
2022-10-02T21:27:08.456Z,328.70
2022-10-02T21:29:53.962Z,310.47
2022-10-02T21:32:42.866Z,335.60
2022-10-02T21:35:31.773Z,347.80
2022-10-02T21:38:28.060Z,340.90
2022-10-02T21:41:35.150Z,244.47
2022-10-02T21:44:34.378Z,248.80
2022-10-02T21:47:40.938Z,267.67
2022-10-02T21:50:46.680Z,272.80
2022-10-02T21:53:57.330Z,227.87
2022-10-02T21:57:02.549Z,244.00
2022-10-02T22:00:08.573Z,208.70
2022-10-02T22:03:13.545Z,222.77
2022-10-02T22:06:05.229Z,252.37
2022-10-02T22:08:44.709Z,276.83
2022-10-02T22:11:22.681Z,309.57
2022-10-02T22:13:55.885Z,306.50
2022-10-02T22:16:35.337Z,321.57
2022-10-02T22:19:14.728Z,376.63
2022-10-02T22:22:02.471Z,328.20
2022-10-02T22:24:49.920Z,307.80
2022-10-02T22:27:32.150Z,293.27
2022-10-02T22:30:00.705Z,298.67
2022-10-02T22:33:13.247Z,405.07
2022-10-02T22:36:24.111Z,238.73
2022-10-02T22:39:00.601Z,259.60
2022-10-02T22:41:36.109Z,323.20
2022-10-02T22:44:10.381Z,318.43
2022-10-02T22:46:47.580Z,360.67
2022-10-02T22:49:27.144Z,357.57
2022-10-02T22:52:01.242Z,382.40
2022-10-02T22:54:39.819Z,376.73
2022-10-02T22:57:20.827Z,357.60
2022-10-02T22:59:56.295Z,347.63
2022-10-02T23:02:30.508Z,414.30
2022-10-02T23:05:07.492Z,442.93
2022-10-02T23:07:42.543Z,403.90
2022-10-02T23:10:21.781Z,404.83
2022-10-02T23:13:01.211Z,388.80
2022-10-02T23:15:39.752Z,436.40
2022-10-02T23:18:19.233Z,440.67
2022-10-02T23:21:02.373Z,448.87
2022-10-02T23:23:36.677Z,369.80
2022-10-02T23:26:11.170Z,374.07
2022-10-02T23:28:46.473Z,384.40
2022-10-02T23:31:22.942Z,353.50
2022-10-02T23:33:58.111Z,355.50
2022-10-02T23:36:33.749Z,323.30
2022-10-02T23:39:07.579Z,356.27
2022-10-02T23:41:47.487Z,353.87
2022-10-02T23:44:24.810Z,296.80
2022-10-02T23:47:18.634Z,312.80
2022-10-02T23:49:49.992Z,257.53
2022-10-02T23:52:38.823Z,323.83
2022-10-02T23:55:20.631Z,285.33
2022-10-02T23:58:18.829Z,293.33
